sensor_id;sensor_type;location;lat;lon;timestamp;pressure;altitude;pressure_sealevel;temperature;humidity
63033;BME280;49121;38.932;-9.018;2023-02-03T00:01:51;111992.50;;;-145.11;71.52
63033;BME280;49121;38.932;-9.018;2023-02-03T00:03:52;111992.50;;;-145.11;71.47
63033;BME280;49121;38.932;-9.018;2023-02-03T00:05:53;111992.50;;;-145.11;71.38
63033;BME280;49121;38.932;-9.018;2023-02-03T00:07:54;111992.50;;;-145.11;71.39
63033;BME280;49121;38.932;-9.018;2023-02-03T00:09:56;111992.50;;;-145.11;71.57
63033;BME280;49121;38.932;-9.018;2023-02-03T00:11:57;111992.50;;;-145.11;71.54
63033;BME280;49121;38.932;-9.018;2023-02-03T00:13:58;111992.50;;;-145.11;71.63
63033;BME280;49121;38.932;-9.018;2023-02-03T00:18:32;111992.50;;;-145.11;72.32
63033;BME280;49121;38.932;-9.018;2023-02-03T00:20:33;111992.50;;;-145.11;72.47
63033;BME280;49121;38.932;-9.018;2023-02-03T00:22:34;111992.50;;;-145.11;72.91
63033;BME280;49121;38.932;-9.018;2023-02-03T00:24:53;111992.50;;;-145.11;73.90
63033;BME280;49121;38.932;-9.018;2023-02-03T00:27:49;111992.50;;;-145.11;74.75
63033;BME280;49121;38.932;-9.018;2023-02-03T00:29:49;111992.50;;;-145.11;75.38
63033;BME280;49121;38.932;-9.018;2023-02-03T00:31:53;111992.50;;;-145.11;75.96
63033;BME280;49121;38.932;-9.018;2023-02-03T00:33:55;111992.50;;;-145.11;76.34
63033;BME280;49121;38.932;-9.018;2023-02-03T00:35:56;111992.50;;;-145.11;76.27
63033;BME280;49121;38.932;-9.018;2023-02-03T00:40:17;111992.50;;;-145.11;76.53
63033;BME280;49121;38.932;-9.018;2023-02-03T00:42:17;111992.50;;;-145.11;76.45
63033;BME280;49121;38.932;-9.018;2023-02-03T00:44:18;111992.50;;;-145.11;75.94
63033;BME280;49121;38.932;-9.018;2023-02-03T00:46:19;111992.50;;;-145.11;75.99
63033;BME280;49121;38.932;-9.018;2023-02-03T00:48:19;111992.50;;;-145.11;75.88
63033;BME280;49121;38.932;-9.018;2023-02-03T00:50:20;111992.50;;;-145.11;75.83
63033;BME280;49121;38.932;-9.018;2023-02-03T00:52:21;111992.50;;;-145.11;75.33
63033;BME280;49121;38.932;-9.018;2023-02-03T00:54:21;111992.50;;;-145.11;75.25
63033;BME280;49121;38.932;-9.018;2023-02-03T00:56:22;111992.50;;;-145.11;75.11
63033;BME280;49121;38.932;-9.018;2023-02-03T00:58:23;111992.50;;;-145.11;75.12
63033;BME280;49121;38.932;-9.018;2023-02-03T01:00:23;111992.50;;;-145.11;74.73
63033;BME280;49121;38.932;-9.018;2023-02-03T01:02:24;111992.50;;;-145.11;74.37
63033;BME280;49121;38.932;-9.018;2023-02-03T01:04:26;111992.50;;;-145.11;74.32
63033;BME280;49121;38.932;-9.018;2023-02-03T01:06:27;111992.50;;;-145.11;74.74
63033;BME280;49121;38.932;-9.018;2023-02-03T01:08:29;111992.50;;;-145.11;75.01
63033;BME280;49121;38.932;-9.018;2023-02-03T01:10:32;111992.50;;;-145.11;75.13
63033;BME280;49121;38.932;-9.018;2023-02-03T01:12:33;111992.50;;;-145.11;75.85
63033;BME280;49121;38.932;-9.018;2023-02-03T01:14:34;111992.50;;;-145.11;75.99
63033;BME280;49121;38.932;-9.018;2023-02-03T01:16:34;111992.50;;;-145.11;76.10
63033;BME280;49121;38.932;-9.018;2023-02-03T01:18:38;111992.50;;;-145.11;76.81
63033;BME280;49121;38.932;-9.018;2023-02-03T01:23:18;111992.50;;;-145.11;77.21
63033;BME280;49121;38.932;-9.018;2023-02-03T01:25:19;111992.50;;;-145.11;77.61
63033;BME280;49121;38.932;-9.018;2023-02-03T01:27:20;111992.50;;;-145.11;77.33
63033;BME280;49121;38.932;-9.018;2023-02-03T01:31:41;111992.50;;;-145.11;77.64
63033;BME280;49121;38.932;-9.018;2023-02-03T01:33:43;111992.50;;;-145.11;78.72
63033;BME280;49121;38.932;-9.018;2023-02-03T01:39:03;111992.50;;;-145.11;79.94
63033;BME280;49121;38.932;-9.018;2023-02-03T01:41:25;111992.50;;;-145.11;80.33
63033;BME280;49121;38.932;-9.018;2023-02-03T01:43:35;111992.50;;;-145.11;80.08
63033;BME280;49121;38.932;-9.018;2023-02-03T01:45:38;111992.50;;;-145.11;80.44
63033;BME280;49121;38.932;-9.018;2023-02-03T01:47:54;111992.50;;;-145.11;80.59
63033;BME280;49121;38.932;-9.018;2023-02-03T01:50:03;111992.50;;;-145.11;80.68
63033;BME280;49121;38.932;-9.018;2023-02-03T01:52:05;111992.50;;;-145.11;80.62
63033;BME280;49121;38.932;-9.018;2023-02-03T01:54:12;111992.50;;;-145.11;81.24
63033;BME280;49121;38.932;-9.018;2023-02-03T01:56:15;111992.50;;;-145.11;81.59
63033;BME280;49121;38.932;-9.018;2023-02-03T01:58:36;111992.50;;;-145.11;81.89
63033;BME280;49121;38.932;-9.018;2023-02-03T02:00:38;111992.50;;;-145.11;81.49
63033;BME280;49121;38.932;-9.018;2023-02-03T02:02:39;111992.50;;;-145.11;81.43
63033;BME280;49121;38.932;-9.018;2023-02-03T02:06:50;111992.50;;;-145.11;81.87
63033;BME280;49121;38.932;-9.018;2023-02-03T02:09:09;111992.50;;;-145.11;82.15
63033;BME280;49121;38.932;-9.018;2023-02-03T02:11:29;111992.50;;;-145.11;81.88
63033;BME280;49121;38.932;-9.018;2023-02-03T02:13:31;111992.50;;;-145.11;82.42
63033;BME280;49121;38.932;-9.018;2023-02-03T02:20:28;111992.50;;;-145.11;82.95
63033;BME280;49121;38.932;-9.018;2023-02-03T02:32:17;111992.50;;;-145.11;83.65
63033;BME280;49121;38.932;-9.018;2023-02-03T02:45:15;111992.50;;;-145.11;83.00
63033;BME280;49121;38.932;-9.018;2023-02-03T02:47:21;111992.50;;;-145.11;82.98
63033;BME280;49121;38.932;-9.018;2023-02-03T02:51:53;111992.50;;;-145.11;83.10
63033;BME280;49121;38.932;-9.018;2023-02-03T02:54:01;111992.50;;;-145.11;83.45
63033;BME280;49121;38.932;-9.018;2023-02-03T02:56:06;111992.50;;;-145.11;83.53
63033;BME280;49121;38.932;-9.018;2023-02-03T02:58:15;111992.50;;;-145.11;83.65
63033;BME280;49121;38.932;-9.018;2023-02-03T03:00:18;111992.50;;;-145.11;83.53
63033;BME280;49121;38.932;-9.018;2023-02-03T03:02:20;111992.50;;;-145.11;83.44
63033;BME280;49121;38.932;-9.018;2023-02-03T03:04:24;111992.50;;;-145.11;84.12
63033;BME280;49121;38.932;-9.018;2023-02-03T03:06:31;111992.50;;;-145.11;83.92
63033;BME280;49121;38.932;-9.018;2023-02-03T03:08:36;111992.50;;;-145.11;84.05
63033;BME280;49121;38.932;-9.018;2023-02-03T03:10:41;111992.50;;;-145.11;84.07
63033;BME280;49121;38.932;-9.018;2023-02-03T03:12:47;111992.50;;;-145.11;84.13
63033;BME280;49121;38.932;-9.018;2023-02-03T03:14:59;111992.50;;;-145.11;84.49
63033;BME280;49121;38.932;-9.018;2023-02-03T03:22:05;111992.50;;;-145.11;84.89
63033;BME280;49121;38.932;-9.018;2023-02-03T03:24:09;111992.50;;;-145.11;85.26
63033;BME280;49121;38.932;-9.018;2023-02-03T03:28:46;111992.50;;;-145.11;85.14
63033;BME280;49121;38.932;-9.018;2023-02-03T03:30:48;111992.50;;;-145.11;84.72
63033;BME280;49121;38.932;-9.018;2023-02-03T03:32:49;111992.50;;;-145.11;84.85
63033;BME280;49121;38.932;-9.018;2023-02-03T03:34:50;111992.50;;;-145.11;85.31
63033;BME280;49121;38.932;-9.018;2023-02-03T03:37:16;111992.50;;;-145.11;85.29
63033;BME280;49121;38.932;-9.018;2023-02-03T03:42:06;111992.50;;;-145.11;84.76
63033;BME280;49121;38.932;-9.018;2023-02-03T03:44:36;111992.50;;;-145.11;84.98
63033;BME280;49121;38.932;-9.018;2023-02-03T03:46:49;111992.50;;;-145.11;84.44
63033;BME280;49121;38.932;-9.018;2023-02-03T03:49:10;111992.50;;;-145.11;84.03
63033;BME280;49121;38.932;-9.018;2023-02-03T03:51:17;111992.50;;;-145.11;83.36
63033;BME280;49121;38.932;-9.018;2023-02-03T03:53:22;111992.50;;;-145.11;83.53
63033;BME280;49121;38.932;-9.018;2023-02-03T03:55:23;111992.50;;;-145.11;82.91
63033;BME280;49121;38.932;-9.018;2023-02-03T03:57:35;111992.50;;;-145.11;82.72
63033;BME280;49121;38.932;-9.018;2023-02-03T04:02:18;111992.50;;;-145.11;83.03
63033;BME280;49121;38.932;-9.018;2023-02-03T04:04:43;111992.50;;;-145.11;83.24
63033;BME280;49121;38.932;-9.018;2023-02-03T04:07:23;111992.50;;;-145.11;82.77
63033;BME280;49121;38.932;-9.018;2023-02-03T04:09:42;111992.50;;;-145.11;82.48
63033;BME280;49121;38.932;-9.018;2023-02-03T04:12:02;111992.50;;;-145.11;82.73
63033;BME280;49121;38.932;-9.018;2023-02-03T04:16:24;111992.50;;;-145.11;82.50
63033;BME280;49121;38.932;-9.018;2023-02-03T04:18:24;111992.50;;;-145.11;82.58
63033;BME280;49121;38.932;-9.018;2023-02-03T04:20:29;111992.50;;;-145.11;82.85
63033;BME280;49121;38.932;-9.018;2023-02-03T04:24:49;111992.50;;;-145.11;82.96
63033;BME280;49121;38.932;-9.018;2023-02-03T04:26:50;111992.50;;;-145.11;82.90
63033;BME280;49121;38.932;-9.018;2023-02-03T04:28:51;111992.50;;;-145.11;83.51
63033;BME280;49121;38.932;-9.018;2023-02-03T04:30:52;111992.50;;;-145.11;83.26
63033;BME280;49121;38.932;-9.018;2023-02-03T04:33:11;111992.50;;;-145.11;82.57
63033;BME280;49121;38.932;-9.018;2023-02-03T04:35:12;111992.50;;;-145.11;82.77
63033;BME280;49121;38.932;-9.018;2023-02-03T04:37:32;111992.50;;;-145.11;82.28
63033;BME280;49121;38.932;-9.018;2023-02-03T04:39:33;111992.50;;;-145.11;82.80
63033;BME280;49121;38.932;-9.018;2023-02-03T04:41:33;111992.50;;;-145.11;83.05
63033;BME280;49121;38.932;-9.018;2023-02-03T04:43:34;111992.50;;;-145.11;82.85
63033;BME280;49121;38.932;-9.018;2023-02-03T04:45:53;111992.50;;;-145.11;83.56
63033;BME280;49121;38.932;-9.018;2023-02-03T04:47:57;111992.50;;;-145.11;83.47
63033;BME280;49121;38.932;-9.018;2023-02-03T04:50:04;111992.50;;;-145.11;82.91
63033;BME280;49121;38.932;-9.018;2023-02-03T04:54:42;111992.50;;;-145.11;83.34
63033;BME280;49121;38.932;-9.018;2023-02-03T04:56:43;111992.50;;;-145.11;83.32
63033;BME280;49121;38.932;-9.018;2023-02-03T04:58:44;111992.50;;;-145.11;83.18
63033;BME280;49121;38.932;-9.018;2023-02-03T05:00:45;111992.50;;;-145.11;82.44
63033;BME280;49121;38.932;-9.018;2023-02-03T05:02:45;111992.50;;;-145.11;82.44
63033;BME280;49121;38.932;-9.018;2023-02-03T05:04:46;111992.50;;;-145.11;82.61
63033;BME280;49121;38.932;-9.018;2023-02-03T05:06:47;111992.50;;;-145.11;81.55
63033;BME280;49121;38.932;-9.018;2023-02-03T05:08:48;111992.50;;;-145.11;80.44
63033;BME280;49121;38.932;-9.018;2023-02-03T05:10:48;111992.50;;;-145.11;79.13
63033;BME280;49121;38.932;-9.018;2023-02-03T05:12:49;111992.50;;;-145.11;78.66
63033;BME280;49121;38.932;-9.018;2023-02-03T05:14:49;111992.50;;;-145.11;78.43
63033;BME280;49121;38.932;-9.018;2023-02-03T05:16:50;111992.50;;;-145.11;78.56
63033;BME280;49121;38.932;-9.018;2023-02-03T05:18:51;111992.50;;;-145.11;78.80
63033;BME280;49121;38.932;-9.018;2023-02-03T05:20:51;111992.50;;;-145.11;79.02
63033;BME280;49121;38.932;-9.018;2023-02-03T05:22:52;111992.50;;;-145.11;79.35
63033;BME280;49121;38.932;-9.018;2023-02-03T05:24:53;111992.50;;;-145.11;79.05
63033;BME280;49121;38.932;-9.018;2023-02-03T05:26:53;111992.50;;;-145.11;79.13
63033;BME280;49121;38.932;-9.018;2023-02-03T05:29:13;111992.50;;;-145.11;78.40
63033;BME280;49121;38.932;-9.018;2023-02-03T05:31:32;111992.50;;;-145.11;78.15
63033;BME280;49121;38.932;-9.018;2023-02-03T05:33:33;111992.50;;;-145.11;78.51
63033;BME280;49121;38.932;-9.018;2023-02-03T05:35:33;111992.50;;;-145.11;78.72
63033;BME280;49121;38.932;-9.018;2023-02-03T05:37:34;111992.50;;;-145.11;79.18
63033;BME280;49121;38.932;-9.018;2023-02-03T05:39:35;111992.50;;;-145.11;79.59
63033;BME280;49121;38.932;-9.018;2023-02-03T05:41:35;111992.50;;;-145.11;79.61
63033;BME280;49121;38.932;-9.018;2023-02-03T05:44:13;111992.50;;;-145.11;79.97
63033;BME280;49121;38.932;-9.018;2023-02-03T05:46:32;111992.50;;;-145.11;80.95
63033;BME280;49121;38.932;-9.018;2023-02-03T05:48:33;111992.50;;;-145.11;81.42
63033;BME280;49121;38.932;-9.018;2023-02-03T05:50:35;111992.50;;;-145.11;81.51
63033;BME280;49121;38.932;-9.018;2023-02-03T05:52:41;111992.50;;;-145.11;82.47
63033;BME280;49121;38.932;-9.018;2023-02-03T05:54:42;111992.50;;;-145.11;82.75
63033;BME280;49121;38.932;-9.018;2023-02-03T05:57:01;111992.50;;;-145.11;82.82
63033;BME280;49121;38.932;-9.018;2023-02-03T05:59:02;111992.50;;;-145.11;83.33
63033;BME280;49121;38.932;-9.018;2023-02-03T06:01:03;111992.50;;;-145.11;84.03
63033;BME280;49121;38.932;-9.018;2023-02-03T06:03:04;111992.50;;;-145.11;83.90
63033;BME280;49121;38.932;-9.018;2023-02-03T06:05:12;111992.50;;;-145.11;84.14
63033;BME280;49121;38.932;-9.018;2023-02-03T06:07:13;111992.50;;;-145.11;83.74
63033;BME280;49121;38.932;-9.018;2023-02-03T06:09:13;111992.50;;;-145.11;84.35
63033;BME280;49121;38.932;-9.018;2023-02-03T06:11:14;111992.50;;;-145.11;84.46
63033;BME280;49121;38.932;-9.018;2023-02-03T06:13:15;111992.50;;;-145.11;84.74
63033;BME280;49121;38.932;-9.018;2023-02-03T06:15:34;111992.50;;;-145.11;84.44
63033;BME280;49121;38.932;-9.018;2023-02-03T06:20:15;111992.50;;;-145.11;84.60
63033;BME280;49121;38.932;-9.018;2023-02-03T06:22:34;111992.50;;;-145.11;84.26
63033;BME280;49121;38.932;-9.018;2023-02-03T06:24:35;111992.50;;;-145.11;84.52
63033;BME280;49121;38.932;-9.018;2023-02-03T06:26:35;111992.50;;;-145.11;84.36
63033;BME280;49121;38.932;-9.018;2023-02-03T06:28:36;111992.50;;;-145.11;84.51
63033;BME280;49121;38.932;-9.018;2023-02-03T06:30:39;111992.50;;;-145.11;84.57
63033;BME280;49121;38.932;-9.018;2023-02-03T06:32:40;111992.50;;;-145.11;84.67
63033;BME280;49121;38.932;-9.018;2023-02-03T06:34:41;111992.50;;;-145.11;84.71
63033;BME280;49121;38.932;-9.018;2023-02-03T06:44:35;111992.50;;;-145.11;85.26
63033;BME280;49121;38.932;-9.018;2023-02-03T06:46:36;111992.50;;;-145.11;85.10
63033;BME280;49121;38.932;-9.018;2023-02-03T06:48:37;111992.50;;;-145.11;85.62
63033;BME280;49121;38.932;-9.018;2023-02-03T06:50:37;111992.50;;;-145.11;85.46
63033;BME280;49121;38.932;-9.018;2023-02-03T06:52:44;111992.50;;;-145.11;86.03
63033;BME280;49121;38.932;-9.018;2023-02-03T06:55:04;111992.50;;;-145.11;85.89
63033;BME280;49121;38.932;-9.018;2023-02-03T06:57:05;111992.50;;;-145.11;85.53
63033;BME280;49121;38.932;-9.018;2023-02-03T06:59:06;111992.50;;;-145.11;85.08
63033;BME280;49121;38.932;-9.018;2023-02-03T07:01:08;111992.50;;;-145.11;85.04
63033;BME280;49121;38.932;-9.018;2023-02-03T07:03:27;111992.50;;;-145.11;84.80
63033;BME280;49121;38.932;-9.018;2023-02-03T07:05:46;111992.50;;;-145.11;84.61
63033;BME280;49121;38.932;-9.018;2023-02-03T07:10:06;111992.50;;;-145.11;84.52
63033;BME280;49121;38.932;-9.018;2023-02-03T07:12:07;111992.50;;;-145.11;84.53
63033;BME280;49121;38.932;-9.018;2023-02-03T07:14:27;111992.50;;;-145.11;84.19
63033;BME280;49121;38.932;-9.018;2023-02-03T07:16:27;111992.50;;;-145.11;84.65
63033;BME280;49121;38.932;-9.018;2023-02-03T07:18:28;111992.50;;;-145.11;83.93
63033;BME280;49121;38.932;-9.018;2023-02-03T07:20:30;111992.50;;;-145.11;83.08
63033;BME280;49121;38.932;-9.018;2023-02-03T07:25:29;111992.50;;;-145.11;81.81
63033;BME280;49121;38.932;-9.018;2023-02-03T07:29:49;111992.50;;;-145.11;80.65
63033;BME280;49121;38.932;-9.018;2023-02-03T07:31:50;111992.50;;;-145.11;80.64
63033;BME280;49121;38.932;-9.018;2023-02-03T07:34:03;111992.50;;;-145.11;80.31
63033;BME280;49121;38.932;-9.018;2023-02-03T07:36:04;111992.50;;;-145.11;80.29
63033;BME280;49121;38.932;-9.018;2023-02-03T07:38:05;111992.50;;;-145.11;80.16
63033;BME280;49121;38.932;-9.018;2023-02-03T07:40:06;111992.50;;;-145.11;79.79
63033;BME280;49121;38.932;-9.018;2023-02-03T07:42:07;111992.50;;;-145.11;79.38
63033;BME280;49121;38.932;-9.018;2023-02-03T07:44:12;111992.50;;;-145.11;78.96
63033;BME280;49121;38.932;-9.018;2023-02-03T07:46:13;111992.50;;;-145.11;77.97
63033;BME280;49121;38.932;-9.018;2023-02-03T07:48:14;111992.50;;;-145.11;75.61
63033;BME280;49121;38.932;-9.018;2023-02-03T07:50:14;111992.50;;;-145.11;73.84
63033;BME280;49121;38.932;-9.018;2023-02-03T07:52:18;111992.50;;;-145.11;73.07
63033;BME280;49121;38.932;-9.018;2023-02-03T07:54:19;111992.50;;;-145.11;72.71
63033;BME280;49121;38.932;-9.018;2023-02-03T07:56:19;111992.50;;;-145.11;72.75
63033;BME280;49121;38.932;-9.018;2023-02-03T07:58:20;111992.50;;;-145.11;71.79
63033;BME280;49121;38.932;-9.018;2023-02-03T08:00:22;111992.50;;;-145.11;71.65
63033;BME280;49121;38.932;-9.018;2023-02-03T08:02:41;111992.50;;;-145.11;70.92
63033;BME280;49121;38.932;-9.018;2023-02-03T08:04:42;111992.50;;;-145.11;70.93
63033;BME280;49121;38.932;-9.018;2023-02-03T08:06:43;111992.50;;;-145.11;71.29
63033;BME280;49121;38.932;-9.018;2023-02-03T08:08:44;111992.50;;;-145.11;72.04
63033;BME280;49121;38.932;-9.018;2023-02-03T08:10:45;111992.50;;;-145.11;72.25
63033;BME280;49121;38.932;-9.018;2023-02-03T08:12:45;111992.50;;;-145.11;72.32
63033;BME280;49121;38.932;-9.018;2023-02-03T08:14:47;111992.50;;;-145.11;72.33
63033;BME280;49121;38.932;-9.018;2023-02-03T08:16:48;111992.50;;;-145.11;71.33
63033;BME280;49121;38.932;-9.018;2023-02-03T08:18:49;111992.50;;;-145.11;70.93
63033;BME280;49121;38.932;-9.018;2023-02-03T08:20:51;111992.50;;;-145.11;70.77
63033;BME280;49121;38.932;-9.018;2023-02-03T08:23:02;111992.50;;;-145.11;70.23
63033;BME280;49121;38.932;-9.018;2023-02-03T08:25:17;111992.50;;;-145.11;69.50
63033;BME280;49121;38.932;-9.018;2023-02-03T08:27:25;111992.50;;;-145.11;69.94
63033;BME280;49121;38.932;-9.018;2023-02-03T08:29:26;111992.50;;;-145.11;70.01
63033;BME280;49121;38.932;-9.018;2023-02-03T08:34:04;111992.50;;;-145.11;70.21
63033;BME280;49121;38.932;-9.018;2023-02-03T08:36:05;111992.50;;;-145.11;69.95
63033;BME280;49121;38.932;-9.018;2023-02-03T08:38:06;111992.50;;;-145.11;70.16
63033;BME280;49121;38.932;-9.018;2023-02-03T08:40:41;111992.50;;;-145.11;69.93
63033;BME280;49121;38.932;-9.018;2023-02-03T08:42:42;111992.50;;;-145.11;69.98
63033;BME280;49121;38.932;-9.018;2023-02-03T08:44:43;111992.50;;;-145.11;70.26
63033;BME280;49121;38.932;-9.018;2023-02-03T08:46:44;111992.50;;;-145.11;70.07
63033;BME280;49121;38.932;-9.018;2023-02-03T08:48:45;111992.50;;;-145.11;69.85
63033;BME280;49121;38.932;-9.018;2023-02-03T08:50:46;111992.50;;;-145.11;69.87
63033;BME280;49121;38.932;-9.018;2023-02-03T08:52:52;111992.50;;;-145.11;69.85
63033;BME280;49121;38.932;-9.018;2023-02-03T08:54:52;111992.50;;;-145.11;69.05
63033;BME280;49121;38.932;-9.018;2023-02-03T08:56:53;111992.50;;;-145.11;67.03
63033;BME280;49121;38.932;-9.018;2023-02-03T08:58:54;111992.50;;;-145.11;64.74
63033;BME280;49121;38.932;-9.018;2023-02-03T09:00:54;111992.50;;;-145.11;63.39
63033;BME280;49121;38.932;-9.018;2023-02-03T09:02:55;111992.50;;;-145.11;62.38
63033;BME280;49121;38.932;-9.018;2023-02-03T09:04:56;111992.50;;;-145.11;62.05
63033;BME280;49121;38.932;-9.018;2023-02-03T09:06:56;111992.50;;;-145.11;62.25
63033;BME280;49121;38.932;-9.018;2023-02-03T09:08:59;111992.50;;;-145.11;61.96
63033;BME280;49121;38.932;-9.018;2023-02-03T09:11:00;111992.50;;;-145.11;61.78
63033;BME280;49121;38.932;-9.018;2023-02-03T09:13:01;111992.50;;;-145.11;62.00
63033;BME280;49121;38.932;-9.018;2023-02-03T09:15:02;111992.50;;;-145.11;61.33
63033;BME280;49121;38.932;-9.018;2023-02-03T09:17:03;111992.50;;;-145.11;59.33
63033;BME280;49121;38.932;-9.018;2023-02-03T09:19:05;111992.50;;;-145.11;57.99
63033;BME280;49121;38.932;-9.018;2023-02-03T09:21:08;111992.50;;;-145.11;57.57
63033;BME280;49121;38.932;-9.018;2023-02-03T09:23:12;111992.50;;;-145.11;57.40
63033;BME280;49121;38.932;-9.018;2023-02-03T09:25:13;111992.50;;;-145.11;55.37
63033;BME280;49121;38.932;-9.018;2023-02-03T09:27:15;111992.50;;;-145.11;55.53
63033;BME280;49121;38.932;-9.018;2023-02-03T09:29:16;111992.50;;;-145.11;55.63
63033;BME280;49121;38.932;-9.018;2023-02-03T09:31:18;111992.50;;;-145.11;55.01
63033;BME280;49121;38.932;-9.018;2023-02-03T09:33:19;111992.50;;;-145.11;55.43
63033;BME280;49121;38.932;-9.018;2023-02-03T09:35:20;111992.50;;;-145.11;54.67
63033;BME280;49121;38.932;-9.018;2023-02-03T09:37:21;111992.50;;;-145.11;54.76
63033;BME280;49121;38.932;-9.018;2023-02-03T09:39:22;111992.50;;;-145.11;55.16
63033;BME280;49121;38.932;-9.018;2023-02-03T09:46:46;111992.50;;;-145.11;54.07
63033;BME280;49121;38.932;-9.018;2023-02-03T09:48:53;111992.50;;;-145.11;53.09
63033;BME280;49121;38.932;-9.018;2023-02-03T09:50:55;111992.50;;;-145.11;53.25
63033;BME280;49121;38.932;-9.018;2023-02-03T09:52:57;111992.50;;;-145.11;53.35
63033;BME280;49121;38.932;-9.018;2023-02-03T09:57:44;111992.50;;;-145.11;52.85
63033;BME280;49121;38.932;-9.018;2023-02-03T10:07:41;111992.50;;;-145.11;51.90
63033;BME280;49121;38.932;-9.018;2023-02-03T10:14:38;111992.50;;;-145.11;51.19
63033;BME280;49121;38.932;-9.018;2023-02-03T10:19:36;111992.50;;;-145.11;51.21
63033;BME280;49121;38.932;-9.018;2023-02-03T10:21:44;111992.50;;;-145.11;51.24
63033;BME280;49121;38.932;-9.018;2023-02-03T10:23:47;111992.50;;;-145.11;51.19
63033;BME280;49121;38.932;-9.018;2023-02-03T10:25:58;111992.50;;;-145.11;51.58
63033;BME280;49121;38.932;-9.018;2023-02-03T10:28:03;111992.50;;;-145.11;51.20
63033;BME280;49121;38.932;-9.018;2023-02-03T10:32:22;111992.50;;;-145.11;51.50
63033;BME280;49121;38.932;-9.018;2023-02-03T10:34:26;111992.50;;;-145.11;51.24
63033;BME280;49121;38.932;-9.018;2023-02-03T10:36:52;111992.50;;;-145.11;51.30
63033;BME280;49121;38.932;-9.018;2023-02-03T10:39:20;111992.50;;;-145.11;50.93
63033;BME280;49121;38.932;-9.018;2023-02-03T10:41:27;111992.50;;;-145.11;50.75
63033;BME280;49121;38.932;-9.018;2023-02-03T10:43:30;111992.50;;;-145.11;50.19
63033;BME280;49121;38.932;-9.018;2023-02-03T10:45:47;111992.50;;;-145.11;49.83
63033;BME280;49121;38.932;-9.018;2023-02-03T10:47:50;111992.50;;;-145.11;49.74
63033;BME280;49121;38.932;-9.018;2023-02-03T10:50:02;111992.50;;;-145.11;49.27
63033;BME280;49121;38.932;-9.018;2023-02-03T10:52:03;111992.50;;;-145.11;49.06
63033;BME280;49121;38.932;-9.018;2023-02-03T10:54:25;111992.50;;;-145.11;49.09
63033;BME280;49121;38.932;-9.018;2023-02-03T10:56:44;111992.50;;;-145.11;49.00
63033;BME280;49121;38.932;-9.018;2023-02-03T10:58:51;111992.50;;;-145.11;48.86
63033;BME280;49121;38.932;-9.018;2023-02-03T11:01:14;111992.50;;;-145.11;48.63
63033;BME280;49121;38.932;-9.018;2023-02-03T11:03:22;111992.50;;;-145.11;48.91
63033;BME280;49121;38.932;-9.018;2023-02-03T11:05:27;111992.50;;;-145.11;48.92
63033;BME280;49121;38.932;-9.018;2023-02-03T11:07:29;111992.50;;;-145.11;48.48
63033;BME280;49121;38.932;-9.018;2023-02-03T11:09:31;111992.50;;;-145.11;48.60
63033;BME280;49121;38.932;-9.018;2023-02-03T11:11:38;111992.50;;;-145.11;48.83
63033;BME280;49121;38.932;-9.018;2023-02-03T11:13:41;111992.50;;;-145.11;48.09
63033;BME280;49121;38.932;-9.018;2023-02-03T11:18:45;111992.50;;;-145.11;46.60
63033;BME280;49121;38.932;-9.018;2023-02-03T11:23:32;111992.50;;;-145.11;46.00
63033;BME280;49121;38.932;-9.018;2023-02-03T11:25:33;111992.50;;;-145.11;45.94
63033;BME280;49121;38.932;-9.018;2023-02-03T11:27:39;111992.50;;;-145.11;45.91
63033;BME280;49121;38.932;-9.018;2023-02-03T11:29:43;111992.50;;;-145.11;45.20
63033;BME280;49121;38.932;-9.018;2023-02-03T11:37:08;111992.50;;;-145.11;47.83
63033;BME280;49121;38.932;-9.018;2023-02-03T11:39:28;111992.50;;;-145.11;46.69
63033;BME280;49121;38.932;-9.018;2023-02-03T11:41:36;111992.50;;;-145.11;48.14
63033;BME280;49121;38.932;-9.018;2023-02-03T11:43:47;111992.50;;;-145.11;48.49
63033;BME280;49121;38.932;-9.018;2023-02-03T11:45:48;111992.50;;;-145.11;48.67
63033;BME280;49121;38.932;-9.018;2023-02-03T11:50:10;111992.50;;;-145.11;49.12
63033;BME280;49121;38.932;-9.018;2023-02-03T11:57:04;111992.50;;;-145.11;50.15
63033;BME280;49121;38.932;-9.018;2023-02-03T12:10:53;111992.50;;;-145.11;48.91
63033;BME280;49121;38.932;-9.018;2023-02-03T12:18:12;111992.50;;;-145.11;49.00
63033;BME280;49121;38.932;-9.018;2023-02-03T12:29:30;111992.50;;;-145.11;48.92
63033;BME280;49121;38.932;-9.018;2023-02-03T12:31:41;111992.50;;;-145.11;48.83
63033;BME280;49121;38.932;-9.018;2023-02-03T12:33:50;111992.50;;;-145.11;49.40
63033;BME280;49121;38.932;-9.018;2023-02-03T12:35:57;111992.50;;;-145.11;49.06
63033;BME280;49121;38.932;-9.018;2023-02-03T12:38:04;111992.50;;;-145.11;48.41
63033;BME280;49121;38.932;-9.018;2023-02-03T12:42:21;111992.50;;;-145.11;48.75
63033;BME280;49121;38.932;-9.018;2023-02-03T12:45:03;111992.50;;;-145.11;48.32
63033;BME280;49121;38.932;-9.018;2023-02-03T12:49:43;111992.50;;;-145.11;47.61
63033;BME280;49121;38.932;-9.018;2023-02-03T12:51:52;111992.50;;;-145.11;48.14
63033;BME280;49121;38.932;-9.018;2023-02-03T12:54:05;111992.50;;;-145.11;47.41
63033;BME280;49121;38.932;-9.018;2023-02-03T12:56:15;111992.50;;;-145.11;47.62
63033;BME280;49121;38.932;-9.018;2023-02-03T12:58:22;111992.50;;;-145.11;46.49
63033;BME280;49121;38.932;-9.018;2023-02-03T13:00:45;111992.50;;;-145.11;47.07
63033;BME280;49121;38.932;-9.018;2023-02-03T13:10:35;111992.50;;;-145.11;46.70
63033;BME280;49121;38.932;-9.018;2023-02-03T13:12:45;111992.50;;;-145.11;43.58
63033;BME280;49121;38.932;-9.018;2023-02-03T13:17:26;111992.50;;;-145.11;43.99
63033;BME280;49121;38.932;-9.018;2023-02-03T13:19:47;111992.50;;;-145.11;44.02
63033;BME280;49121;38.932;-9.018;2023-02-03T13:21:57;111992.50;;;-145.11;44.28